sensor_id;sensor_type;location;lat;lon;timestamp;P1;durP1;ratioP1;P2;durP2;ratioP2
13475;SDS011;6810;63.824;20.288;2022-09-09T00:05:14;4.77;;;3.00;;
13475;SDS011;6810;63.824;20.288;2022-09-09T00:07:47;8.97;;;3.40;;
13475;SDS011;6810;63.824;20.288;2022-09-09T00:10:28;7.13;;;3.23;;
13475;SDS011;6810;63.824;20.288;2022-09-09T00:13:28;5.33;;;2.43;;
13475;SDS011;6810;63.824;20.288;2022-09-09T00:25:24;1.33;;;0.90;;
13475;SDS011;6810;63.824;20.288;2022-09-09T00:28:19;0.90;;;0.80;;
13475;SDS011;6810;63.824;20.288;2022-09-09T00:31:13;1.20;;;0.90;;
13475;SDS011;6810;63.824;20.288;2022-09-09T00:34:09;0.87;;;0.87;;
13475;SDS011;6810;63.824;20.288;2022-09-09T00:37:04;0.80;;;0.80;;
13475;SDS011;6810;63.824;20.288;2022-09-09T00:39:55;1.27;;;0.70;;
13475;SDS011;6810;63.824;20.288;2022-09-09T00:42:47;1.90;;;0.90;;
13475;SDS011;6810;63.824;20.288;2022-09-09T00:55:52;1.00;;;0.83;;
13475;SDS011;6810;63.824;20.288;2022-09-09T01:02:13;0.60;;;0.50;;
13475;SDS011;6810;63.824;20.288;2022-09-09T01:05:27;2.40;;;0.90;;
13475;SDS011;6810;63.824;20.288;2022-09-09T01:08:28;1.00;;;0.80;;
13475;SDS011;6810;63.824;20.288;2022-09-09T01:11:32;1.03;;;0.90;;
13475;SDS011;6810;63.824;20.288;2022-09-09T01:14:29;1.17;;;0.80;;
13475;SDS011;6810;63.824;20.288;2022-09-09T01:17:22;2.53;;;1.00;;
13475;SDS011;6810;63.824;20.288;2022-09-09T01:29:13;3.07;;;0.80;;
13475;SDS011;6810;63.824;20.288;2022-09-09T01:32:37;0.93;;;0.70;;
13475;SDS011;6810;63.824;20.288;2022-09-09T01:35:29;0.70;;;0.70;;
13475;SDS011;6810;63.824;20.288;2022-09-09T01:38:20;1.47;;;1.00;;
13475;SDS011;6810;63.824;20.288;2022-09-09T01:41:08;3.07;;;0.97;;
13475;SDS011;6810;63.824;20.288;2022-09-09T01:44:04;1.10;;;0.70;;
13475;SDS011;6810;63.824;20.288;2022-09-09T01:46:52;1.17;;;0.90;;
13475;SDS011;6810;63.824;20.288;2022-09-09T01:49:54;1.00;;;0.90;;
13475;SDS011;6810;63.824;20.288;2022-09-09T01:52:41;1.43;;;0.80;;
13475;SDS011;6810;63.824;20.288;2022-09-09T01:55:33;1.57;;;0.93;;
13475;SDS011;6810;63.824;20.288;2022-09-09T02:02:10;1.40;;;1.00;;
13475;SDS011;6810;63.824;20.288;2022-09-09T02:05:26;1.20;;;0.97;;
13475;SDS011;6810;63.824;20.288;2022-09-09T02:08:23;2.23;;;0.93;;
13475;SDS011;6810;63.824;20.288;2022-09-09T02:11:16;1.70;;;0.97;;
13475;SDS011;6810;63.824;20.288;2022-09-09T02:14:15;2.23;;;1.10;;
13475;SDS011;6810;63.824;20.288;2022-09-09T02:17:09;1.07;;;0.80;;
13475;SDS011;6810;63.824;20.288;2022-09-09T02:20:08;1.10;;;1.00;;
13475;SDS011;6810;63.824;20.288;2022-09-09T02:23:01;0.87;;;0.80;;
13475;SDS011;6810;63.824;20.288;2022-09-09T02:25:51;2.80;;;1.00;;
13475;SDS011;6810;63.824;20.288;2022-09-09T02:28:41;1.40;;;1.00;;
13475;SDS011;6810;63.824;20.288;2022-09-09T02:31:28;1.40;;;0.90;;
13475;SDS011;6810;63.824;20.288;2022-09-09T02:34:20;1.20;;;1.00;;
13475;SDS011;6810;63.824;20.288;2022-09-09T02:37:10;1.63;;;1.00;;
13475;SDS011;6810;63.824;20.288;2022-09-09T02:39:59;2.57;;;1.20;;
13475;SDS011;6810;63.824;20.288;2022-09-09T02:42:54;1.90;;;1.10;;
13475;SDS011;6810;63.824;20.288;2022-09-09T02:45:42;1.53;;;0.93;;
13475;SDS011;6810;63.824;20.288;2022-09-09T02:48:43;1.37;;;1.00;;
13475;SDS011;6810;63.824;20.288;2022-09-09T02:54:52;2.07;;;1.00;;
13475;SDS011;6810;63.824;20.288;2022-09-09T02:57:46;2.53;;;1.00;;
13475;SDS011;6810;63.824;20.288;2022-09-09T03:00:35;1.93;;;1.33;;
13475;SDS011;6810;63.824;20.288;2022-09-09T03:03:25;1.03;;;0.90;;
13475;SDS011;6810;63.824;20.288;2022-09-09T03:06:15;2.47;;;1.23;;
13475;SDS011;6810;63.824;20.288;2022-09-09T03:09:13;1.03;;;0.87;;
13475;SDS011;6810;63.824;20.288;2022-09-09T03:12:00;3.60;;;1.50;;
13475;SDS011;6810;63.824;20.288;2022-09-09T03:14:47;2.17;;;1.10;;
13475;SDS011;6810;63.824;20.288;2022-09-09T03:17:35;2.70;;;1.10;;
13475;SDS011;6810;63.824;20.288;2022-09-09T03:20:24;2.17;;;1.20;;
13475;SDS011;6810;63.824;20.288;2022-09-09T03:23:11;1.50;;;1.00;;
13475;SDS011;6810;63.824;20.288;2022-09-09T03:26:01;1.77;;;1.10;;
13475;SDS011;6810;63.824;20.288;2022-09-09T03:28:48;1.80;;;1.17;;
13475;SDS011;6810;63.824;20.288;2022-09-09T03:31:36;2.80;;;1.40;;
13475;SDS011;6810;63.824;20.288;2022-09-09T07:38:26;2.80;;;1.27;;
13475;SDS011;6810;63.824;20.288;2022-09-09T07:41:02;1.80;;;0.90;;
13475;SDS011;6810;63.824;20.288;2022-09-09T07:43:33;2.43;;;1.13;;
13475;SDS011;6810;63.824;20.288;2022-09-09T07:46:01;1.20;;;0.77;;
13475;SDS011;6810;63.824;20.288;2022-09-09T07:48:29;1.80;;;1.00;;
13475;SDS011;6810;63.824;20.288;2022-09-09T07:51:10;1.80;;;1.00;;
13475;SDS011;6810;63.824;20.288;2022-09-09T07:53:40;1.40;;;0.90;;
13475;SDS011;6810;63.824;20.288;2022-09-09T07:56:08;1.50;;;0.77;;
13475;SDS011;6810;63.824;20.288;2022-09-09T07:58:38;0.70;;;0.70;;
13475;SDS011;6810;63.824;20.288;2022-09-09T08:01:28;1.37;;;0.40;;
13475;SDS011;6810;63.824;20.288;2022-09-09T08:03:59;0.60;;;0.60;;
13475;SDS011;6810;63.824;20.288;2022-09-09T08:06:50;4.63;;;1.47;;
13475;SDS011;6810;63.824;20.288;2022-09-09T08:09:47;0.67;;;0.47;;
13475;SDS011;6810;63.824;20.288;2022-09-09T08:12:37;0.80;;;0.50;;
13475;SDS011;6810;63.824;20.288;2022-09-09T08:15:43;1.43;;;0.70;;
13475;SDS011;6810;63.824;20.288;2022-09-09T08:18:31;1.80;;;1.00;;
13475;SDS011;6810;63.824;20.288;2022-09-09T08:21:19;1.23;;;0.60;;
13475;SDS011;6810;63.824;20.288;2022-09-09T08:24:09;1.07;;;0.70;;
13475;SDS011;6810;63.824;20.288;2022-09-09T08:26:57;0.70;;;0.60;;
13475;SDS011;6810;63.824;20.288;2022-09-09T08:29:44;0.80;;;0.60;;
13475;SDS011;6810;63.824;20.288;2022-09-09T08:32:31;1.60;;;0.70;;
13475;SDS011;6810;63.824;20.288;2022-09-09T08:35:21;1.10;;;0.50;;
13475;SDS011;6810;63.824;20.288;2022-09-09T08:38:07;1.00;;;0.60;;
13475;SDS011;6810;63.824;20.288;2022-09-09T08:40:57;0.70;;;0.67;;
13475;SDS011;6810;63.824;20.288;2022-09-09T08:43:33;1.10;;;0.60;;
13475;SDS011;6810;63.824;20.288;2022-09-09T08:46:24;1.33;;;0.80;;
13475;SDS011;6810;63.824;20.288;2022-09-09T08:52:29;1.37;;;0.53;;
13475;SDS011;6810;63.824;20.288;2022-09-09T08:58:31;2.67;;;0.60;;
13475;SDS011;6810;63.824;20.288;2022-09-09T09:07:42;1.13;;;0.60;;
13475;SDS011;6810;63.824;20.288;2022-09-09T09:10:53;0.90;;;0.53;;
13475;SDS011;6810;63.824;20.288;2022-09-09T09:13:44;0.87;;;0.50;;
13475;SDS011;6810;63.824;20.288;2022-09-09T09:17:00;1.30;;;0.50;;
13475;SDS011;6810;63.824;20.288;2022-09-09T09:19:38;0.80;;;0.50;;
13475;SDS011;6810;63.824;20.288;2022-09-09T09:25:33;1.33;;;0.67;;
13475;SDS011;6810;63.824;20.288;2022-09-09T09:28:26;0.50;;;0.40;;
13475;SDS011;6810;63.824;20.288;2022-09-09T09:31:16;0.33;;;0.33;;
13475;SDS011;6810;63.824;20.288;2022-09-09T09:34:07;0.23;;;0.23;;
13475;SDS011;6810;63.824;20.288;2022-09-09T09:36:56;0.57;;;0.40;;
13475;SDS011;6810;63.824;20.288;2022-09-09T09:39:44;0.63;;;0.40;;
13475;SDS011;6810;63.824;20.288;2022-09-09T09:42:31;0.60;;;0.40;;
13475;SDS011;6810;63.824;20.288;2022-09-09T09:48:55;0.80;;;0.50;;
13475;SDS011;6810;63.824;20.288;2022-09-09T09:51:43;0.97;;;0.30;;
13475;SDS011;6810;63.824;20.288;2022-09-09T09:54:32;0.30;;;0.30;;
13475;SDS011;6810;63.824;20.288;2022-09-09T09:57:14;0.40;;;0.40;;
13475;SDS011;6810;63.824;20.288;2022-09-09T09:59:45;0.53;;;0.50;;
13475;SDS011;6810;63.824;20.288;2022-09-09T10:02:25;0.40;;;0.40;;
13475;SDS011;6810;63.824;20.288;2022-09-09T10:05:03;0.80;;;0.33;;
13475;SDS011;6810;63.824;20.288;2022-09-09T10:07:43;1.37;;;0.47;;
13475;SDS011;6810;63.824;20.288;2022-09-09T10:10:23;0.50;;;0.37;;
13475;SDS011;6810;63.824;20.288;2022-09-09T10:13:11;1.03;;;0.40;;
13475;SDS011;6810;63.824;20.288;2022-09-09T10:15:54;2.47;;;0.40;;
13475;SDS011;6810;63.824;20.288;2022-09-09T10:21:43;0.30;;;0.30;;
13475;SDS011;6810;63.824;20.288;2022-09-09T10:29:44;0.40;;;0.40;;
13475;SDS011;6810;63.824;20.288;2022-09-09T10:38:08;1.00;;;0.50;;
13475;SDS011;6810;63.824;20.288;2022-09-09T10:43:46;1.27;;;0.50;;
13475;SDS011;6810;63.824;20.288;2022-09-09T10:55:14;0.97;;;0.50;;
13475;SDS011;6810;63.824;20.288;2022-09-09T11:00:23;0.97;;;0.50;;
13475;SDS011;6810;63.824;20.288;2022-09-09T11:02:58;1.20;;;0.30;;
13475;SDS011;6810;63.824;20.288;2022-09-09T11:08:34;0.37;;;0.37;;
13475;SDS011;6810;63.824;20.288;2022-09-09T11:13:36;2.53;;;0.50;;
13475;SDS011;6810;63.824;20.288;2022-09-09T11:19:04;1.57;;;0.60;;
13475;SDS011;6810;63.824;20.288;2022-09-09T11:21:55;1.10;;;0.50;;
13475;SDS011;6810;63.824;20.288;2022-09-09T11:37:26;0.93;;;0.40;;
13475;SDS011;6810;63.824;20.288;2022-09-09T11:43:15;1.13;;;0.53;;
13475;SDS011;6810;63.824;20.288;2022-09-09T11:46:31;0.30;;;0.30;;
13475;SDS011;6810;63.824;20.288;2022-09-09T11:49:28;0.20;;;0.20;;
13475;SDS011;6810;63.824;20.288;2022-09-09T11:55:25;1.13;;;0.40;;
13475;SDS011;6810;63.824;20.288;2022-09-09T12:00:59;0.40;;;0.40;;
13475;SDS011;6810;63.824;20.288;2022-09-09T12:03:47;0.37;;;0.37;;
13475;SDS011;6810;63.824;20.288;2022-09-09T12:06:56;1.60;;;0.40;;
13475;SDS011;6810;63.824;20.288;2022-09-09T12:12:35;0.43;;;0.43;;
13475;SDS011;6810;63.824;20.288;2022-09-09T12:15:24;0.60;;;0.43;;
13475;SDS011;6810;63.824;20.288;2022-09-09T12:18:21;0.50;;;0.50;;
13475;SDS011;6810;63.824;20.288;2022-09-09T12:24:16;0.50;;;0.40;;
13475;SDS011;6810;63.824;20.288;2022-09-09T12:30:23;0.57;;;0.40;;
13475;SDS011;6810;63.824;20.288;2022-09-09T12:32:36;0.50;;;0.43;;
13475;SDS011;6810;63.824;20.288;2022-09-09T12:35:11;0.60;;;0.40;;
13475;SDS011;6810;63.824;20.288;2022-09-09T12:38:01;1.63;;;0.47;;
13475;SDS011;6810;63.824;20.288;2022-09-09T12:40:31;2.40;;;0.40;;
13475;SDS011;6810;63.824;20.288;2022-09-09T12:43:14;2.87;;;0.50;;
13475;SDS011;6810;63.824;20.288;2022-09-09T12:45:44;0.43;;;0.43;;
13475;SDS011;6810;63.824;20.288;2022-09-09T12:48:11;1.70;;;0.90;;
13475;SDS011;6810;63.824;20.288;2022-09-09T12:50:49;0.87;;;0.53;;
13475;SDS011;6810;63.824;20.288;2022-09-09T12:53:25;0.93;;;0.40;;
13475;SDS011;6810;63.824;20.288;2022-09-09T12:55:57;0.93;;;0.50;;
13475;SDS011;6810;63.824;20.288;2022-09-09T12:58:27;0.60;;;0.40;;
13475;SDS011;6810;63.824;20.288;2022-09-09T13:00:59;1.43;;;0.50;;
13475;SDS011;6810;63.824;20.288;2022-09-09T13:03:28;1.20;;;0.60;;
13475;SDS011;6810;63.824;20.288;2022-09-09T13:05:57;0.30;;;0.30;;
13475;SDS011;6810;63.824;20.288;2022-09-09T13:08:36;0.30;;;0.30;;
13475;SDS011;6810;63.824;20.288;2022-09-09T13:11:04;1.07;;;0.33;;
13475;SDS011;6810;63.824;20.288;2022-09-09T13:13:41;0.47;;;0.40;;
13475;SDS011;6810;63.824;20.288;2022-09-09T13:16:28;0.70;;;0.40;;
13475;SDS011;6810;63.824;20.288;2022-09-09T13:19:17;2.20;;;0.37;;
13475;SDS011;6810;63.824;20.288;2022-09-09T13:22:20;1.33;;;0.33;;
13475;SDS011;6810;63.824;20.288;2022-09-09T13:28:18;1.73;;;0.50;;
13475;SDS011;6810;63.824;20.288;2022-09-09T13:31:50;1.33;;;0.47;;
13475;SDS011;6810;63.824;20.288;2022-09-09T13:34:30;0.30;;;0.30;;
13475;SDS011;6810;63.824;20.288;2022-09-09T13:37:24;2.00;;;0.30;;
13475;SDS011;6810;63.824;20.288;2022-09-09T13:40:19;0.80;;;0.40;;
13475;SDS011;6810;63.824;20.288;2022-09-09T13:43:14;0.70;;;0.30;;
13475;SDS011;6810;63.824;20.288;2022-09-09T13:49:18;0.40;;;0.40;;
13475;SDS011;6810;63.824;20.288;2022-09-09T13:51:50;3.40;;;0.43;;
13475;SDS011;6810;63.824;20.288;2022-09-09T13:54:20;1.03;;;0.40;;
13475;SDS011;6810;63.824;20.288;2022-09-09T13:57:14;0.60;;;0.27;;
13475;SDS011;6810;63.824;20.288;2022-09-09T14:00:06;0.60;;;0.30;;
13475;SDS011;6810;63.824;20.288;2022-09-09T14:02:58;0.97;;;0.50;;
13475;SDS011;6810;63.824;20.288;2022-09-09T14:05:45;0.37;;;0.23;;
13475;SDS011;6810;63.824;20.288;2022-09-09T14:08:32;1.97;;;0.30;;
13475;SDS011;6810;63.824;20.288;2022-09-09T14:11:20;0.83;;;0.30;;
13475;SDS011;6810;63.824;20.288;2022-09-09T14:14:07;0.93;;;0.57;;
13475;SDS011;6810;63.824;20.288;2022-09-09T14:16:54;1.03;;;0.40;;
13475;SDS011;6810;63.824;20.288;2022-09-09T14:19:41;1.33;;;0.40;;
13475;SDS011;6810;63.824;20.288;2022-09-09T14:22:28;0.83;;;0.40;;
13475;SDS011;6810;63.824;20.288;2022-09-09T14:25:15;0.33;;;0.33;;
13475;SDS011;6810;63.824;20.288;2022-09-09T14:28:02;1.30;;;0.40;;
13475;SDS011;6810;63.824;20.288;2022-09-09T14:31:09;0.40;;;0.40;;
13475;SDS011;6810;63.824;20.288;2022-09-09T14:33:56;0.40;;;0.30;;
13475;SDS011;6810;63.824;20.288;2022-09-09T14:36:43;2.73;;;0.43;;
13475;SDS011;6810;63.824;20.288;2022-09-09T14:39:30;0.50;;;0.30;;
13475;SDS011;6810;63.824;20.288;2022-09-09T14:42:17;0.40;;;0.20;;
13475;SDS011;6810;63.824;20.288;2022-09-09T14:45:04;1.43;;;0.40;;
13475;SDS011;6810;63.824;20.288;2022-09-09T14:47:52;0.63;;;0.47;;
13475;SDS011;6810;63.824;20.288;2022-09-09T14:50:39;1.40;;;0.57;;
13475;SDS011;6810;63.824;20.288;2022-09-09T14:53:26;0.40;;;0.40;;
13475;SDS011;6810;63.824;20.288;2022-09-09T14:56:18;1.70;;;0.43;;
13475;SDS011;6810;63.824;20.288;2022-09-09T14:59:06;0.20;;;0.20;;
13475;SDS011;6810;63.824;20.288;2022-09-09T15:01:33;0.40;;;0.40;;
13475;SDS011;6810;63.824;20.288;2022-09-09T15:04:01;0.40;;;0.40;;
13475;SDS011;6810;63.824;20.288;2022-09-09T15:06:31;1.00;;;0.40;;
13475;SDS011;6810;63.824;20.288;2022-09-09T15:09:00;0.93;;;0.60;;
13475;SDS011;6810;63.824;20.288;2022-09-09T15:11:28;0.40;;;0.40;;
13475;SDS011;6810;63.824;20.288;2022-09-09T15:13:57;0.50;;;0.30;;
13475;SDS011;6810;63.824;20.288;2022-09-09T15:16:26;0.60;;;0.43;;
13475;SDS011;6810;63.824;20.288;2022-09-09T15:18:55;0.37;;;0.30;;
13475;SDS011;6810;63.824;20.288;2022-09-09T15:21:24;2.00;;;0.40;;
13475;SDS011;6810;63.824;20.288;2022-09-09T15:23:54;0.40;;;0.40;;
13475;SDS011;6810;63.824;20.288;2022-09-09T15:26:22;0.93;;;0.50;;
13475;SDS011;6810;63.824;20.288;2022-09-09T15:28:49;0.90;;;0.47;;
13475;SDS011;6810;63.824;20.288;2022-09-09T15:31:18;0.60;;;0.60;;
13475;SDS011;6810;63.824;20.288;2022-09-09T15:33:49;1.90;;;1.63;;
13475;SDS011;6810;63.824;20.288;2022-09-09T15:36:17;0.97;;;0.50;;
13475;SDS011;6810;63.824;20.288;2022-09-09T15:38:46;0.70;;;0.53;;
13475;SDS011;6810;63.824;20.288;2022-09-09T15:41:14;0.50;;;0.40;;
13475;SDS011;6810;63.824;20.288;2022-09-09T15:43:45;1.03;;;0.40;;
13475;SDS011;6810;63.824;20.288;2022-09-09T15:48:51;1.20;;;0.40;;
13475;SDS011;6810;63.824;20.288;2022-09-09T15:51:20;0.87;;;0.37;;
13475;SDS011;6810;63.824;20.288;2022-09-09T15:54:07;0.40;;;0.40;;
13475;SDS011;6810;63.824;20.288;2022-09-09T15:56:34;1.27;;;0.50;;
13475;SDS011;6810;63.824;20.288;2022-09-09T15:59:01;0.50;;;0.50;;
13475;SDS011;6810;63.824;20.288;2022-09-09T16:01:32;1.13;;;0.60;;
13475;SDS011;6810;63.824;20.288;2022-09-09T16:04:19;0.63;;;0.50;;
13475;SDS011;6810;63.824;20.288;2022-09-09T16:07:06;2.07;;;0.50;;
13475;SDS011;6810;63.824;20.288;2022-09-09T16:09:53;0.47;;;0.30;;
13475;SDS011;6810;63.824;20.288;2022-09-09T16:12:40;0.93;;;0.33;;
13475;SDS011;6810;63.824;20.288;2022-09-09T16:15:27;0.70;;;0.40;;
13475;SDS011;6810;63.824;20.288;2022-09-09T16:18:14;0.40;;;0.40;;
13475;SDS011;6810;63.824;20.288;2022-09-09T16:21:02;0.70;;;0.60;;
13475;SDS011;6810;63.824;20.288;2022-09-09T16:23:50;1.23;;;0.60;;
13475;SDS011;6810;63.824;20.288;2022-09-09T16:26:40;1.17;;;0.70;;
13475;SDS011;6810;63.824;20.288;2022-09-09T16:29:29;1.13;;;0.60;;
13475;SDS011;6810;63.824;20.288;2022-09-09T16:32:16;0.70;;;0.60;;
13475;SDS011;6810;63.824;20.288;2022-09-09T16:35:03;1.73;;;0.53;;
13475;SDS011;6810;63.824;20.288;2022-09-09T16:37:50;1.23;;;0.60;;
13475;SDS011;6810;63.824;20.288;2022-09-09T16:40:37;2.37;;;0.70;;
13475;SDS011;6810;63.824;20.288;2022-09-09T16:43:24;0.80;;;0.50;;
13475;SDS011;6810;63.824;20.288;2022-09-09T16:46:15;0.73;;;0.50;;
13475;SDS011;6810;63.824;20.288;2022-09-09T16:49:05;0.40;;;0.40;;
13475;SDS011;6810;63.824;20.288;2022-09-09T16:51:56;0.60;;;0.60;;
13475;SDS011;6810;63.824;20.288;2022-09-09T16:54:46;1.03;;;0.93;;
13475;SDS011;6810;63.824;20.288;2022-09-09T16:57:33;1.47;;;0.60;;
13475;SDS011;6810;63.824;20.288;2022-09-09T17:00:20;0.93;;;0.70;;
13475;SDS011;6810;63.824;20.288;2022-09-09T17:03:10;2.00;;;0.47;;
13475;SDS011;6810;63.824;20.288;2022-09-09T17:05:59;0.90;;;0.50;;
13475;SDS011;6810;63.824;20.288;2022-09-09T17:08:58;1.17;;;0.53;;
13475;SDS011;6810;63.824;20.288;2022-09-09T17:11:47;0.57;;;0.57;;
13475;SDS011;6810;63.824;20.288;2022-09-09T17:14:34;0.77;;;0.50;;
13475;SDS011;6810;63.824;20.288;2022-09-09T17:17:21;0.80;;;0.60;;
13475;SDS011;6810;63.824;20.288;2022-09-09T17:20:08;1.37;;;0.90;;
13475;SDS011;6810;63.824;20.288;2022-09-09T17:23:11;0.63;;;0.60;;
13475;SDS011;6810;63.824;20.288;2022-09-09T17:25:59;0.80;;;0.60;;
13475;SDS011;6810;63.824;20.288;2022-09-09T17:28:46;0.70;;;0.70;;
13475;SDS011;6810;63.824;20.288;2022-09-09T17:31:33;0.60;;;0.60;;
13475;SDS011;6810;63.824;20.288;2022-09-09T17:34:20;0.70;;;0.70;;
13475;SDS011;6810;63.824;20.288;2022-09-09T17:37:07;0.70;;;0.70;;
13475;SDS011;6810;63.824;20.288;2022-09-09T17:39:54;0.77;;;0.77;;
13475;SDS011;6810;63.824;20.288;2022-09-09T17:42:41;1.57;;;0.70;;
13475;SDS011;6810;63.824;20.288;2022-09-09T17:45:28;0.67;;;0.67;;
13475;SDS011;6810;63.824;20.288;2022-09-09T17:48:15;1.17;;;0.87;;
13475;SDS011;6810;63.824;20.288;2022-09-09T17:51:06;0.80;;;0.80;;
13475;SDS011;6810;63.824;20.288;2022-09-09T17:53:54;1.40;;;0.70;;
13475;SDS011;6810;63.824;20.288;2022-09-09T17:56:44;1.40;;;0.77;;
13475;SDS011;6810;63.824;20.288;2022-09-09T17:59:31;0.80;;;0.80;;
13475;SDS011;6810;63.824;20.288;2022-09-09T18:02:18;1.10;;;0.90;;
13475;SDS011;6810;63.824;20.288;2022-09-09T18:05:05;0.70;;;0.70;;
13475;SDS011;6810;63.824;20.288;2022-09-09T18:07:53;0.77;;;0.77;;
13475;SDS011;6810;63.824;20.288;2022-09-09T18:10:40;0.63;;;0.63;;
13475;SDS011;6810;63.824;20.288;2022-09-09T18:13:27;2.40;;;0.80;;
13475;SDS011;6810;63.824;20.288;2022-09-09T18:16:14;0.70;;;0.70;;
13475;SDS011;6810;63.824;20.288;2022-09-09T18:19:05;0.80;;;0.80;;
13475;SDS011;6810;63.824;20.288;2022-09-09T18:21:54;1.27;;;0.90;;
13475;SDS011;6810;63.824;20.288;2022-09-09T18:24:42;0.50;;;0.50;;
13475;SDS011;6810;63.824;20.288;2022-09-09T18:27:28;1.37;;;0.77;;
13475;SDS011;6810;63.824;20.288;2022-09-09T18:30:15;0.93;;;0.80;;
13475;SDS011;6810;63.824;20.288;2022-09-09T18:33:02;0.73;;;0.70;;
13475;SDS011;6810;63.824;20.288;2022-09-09T18:35:49;0.70;;;0.70;;
13475;SDS011;6810;63.824;20.288;2022-09-09T18:38:36;0.70;;;0.70;;
13475;SDS011;6810;63.824;20.288;2022-09-09T18:41:30;1.30;;;1.13;;
13475;SDS011;6810;63.824;20.288;2022-09-09T18:44:21;1.67;;;1.10;;
13475;SDS011;6810;63.824;20.288;2022-09-09T18:47:10;1.40;;;1.30;;
13475;SDS011;6810;63.824;20.288;2022-09-09T18:49:56;1.80;;;1.20;;
13475;SDS011;6810;63.824;20.288;2022-09-09T18:52:44;1.60;;;1.30;;
13475;SDS011;6810;63.824;20.288;2022-09-09T18:55:30;1.60;;;1.17;;
13475;SDS011;6810;63.824;20.288;2022-09-09T18:58:17;1.13;;;1.03;;
13475;SDS011;6810;63.824;20.288;2022-09-09T19:01:07;1.30;;;1.20;;
13475;SDS011;6810;63.824;20.288;2022-09-09T19:03:59;1.47;;;1.20;;
13475;SDS011;6810;63.824;20.288;2022-09-09T19:06:46;1.37;;;1.27;;
13475;SDS011;6810;63.824;20.288;2022-09-09T19:09:34;1.40;;;1.30;;
13475;SDS011;6810;63.824;20.288;2022-09-09T19:12:21;2.40;;;1.40;;
13475;SDS011;6810;63.824;20.288;2022-09-09T19:15:08;1.70;;;1.50;;
13475;SDS011;6810;63.824;20.288;2022-09-09T19:17:55;1.60;;;1.50;;
13475;SDS011;6810;63.824;20.288;2022-09-09T19:20:42;1.57;;;1.47;;
13475;SDS011;6810;63.824;20.288;2022-09-09T19:23:29;2.07;;;1.53;;
13475;SDS011;6810;63.824;20.288;2022-09-09T19:26:16;1.67;;;1.30;;
13475;SDS011;6810;63.824;20.288;2022-09-09T19:29:03;2.37;;;1.33;;
13475;SDS011;6810;63.824;20.288;2022-09-09T19:31:52;1.60;;;1.50;;
13475;SDS011;6810;63.824;20.288;2022-09-09T19:35:00;1.40;;;1.30;;
13475;SDS011;6810;63.824;20.288;2022-09-09T19:37:47;1.40;;;1.30;;
13475;SDS011;6810;63.824;20.288;2022-09-09T19:40:34;2.37;;;1.40;;
13475;SDS011;6810;63.824;20.288;2022-09-09T19:43:23;1.50;;;1.40;;
13475;SDS011;6810;63.824;20.288;2022-09-09T19:46:10;2.03;;;1.20;;
13475;SDS011;6810;63.824;20.288;2022-09-09T19:48:58;2.27;;;1.70;;
13475;SDS011;6810;63.824;20.288;2022-09-09T19:51:46;1.30;;;1.20;;
13475;SDS011;6810;63.824;20.288;2022-09-09T19:54:33;1.47;;;1.37;;
13475;SDS011;6810;63.824;20.288;2022-09-09T19:57:20;1.57;;;1.47;;
13475;SDS011;6810;63.824;20.288;2022-09-09T20:00:07;1.60;;;1.40;;
13475;SDS011;6810;63.824;20.288;2022-09-09T20:02:55;1.73;;;1.50;;
13475;SDS011;6810;63.824;20.288;2022-09-09T20:05:45;2.27;;;1.50;;
13475;SDS011;6810;63.824;20.288;2022-09-09T20:08:33;2.27;;;1.30;;
13475;SDS011;6810;63.824;20.288;2022-09-09T20:11:21;1.50;;;1.40;;
13475;SDS011;6810;63.824;20.288;2022-09-09T20:14:09;1.67;;;1.30;;
13475;SDS011;6810;63.824;20.288;2022-09-09T20:17:02;1.50;;;1.40;;
13475;SDS011;6810;63.824;20.288;2022-09-09T20:19:49;1.57;;;1.47;;
13475;SDS011;6810;63.824;20.288;2022-09-09T20:22:36;1.53;;;1.43;;
13475;SDS011;6810;63.824;20.288;2022-09-09T20:25:23;1.60;;;1.50;;
13475;SDS011;6810;63.824;20.288;2022-09-09T20:28:10;1.33;;;1.23;;
13475;SDS011;6810;63.824;20.288;2022-09-09T20:31:02;2.70;;;1.30;;
13475;SDS011;6810;63.824;20.288;2022-09-09T20:33:55;1.27;;;1.17;;
13475;SDS011;6810;63.824;20.288;2022-09-09T20:36:42;2.33;;;1.50;;
13475;SDS011;6810;63.824;20.288;2022-09-09T20:39:30;1.50;;;1.40;;
13475;SDS011;6810;63.824;20.288;2022-09-09T20:42:17;1.50;;;1.33;;
13475;SDS011;6810;63.824;20.288;2022-09-09T20:45:04;1.33;;;1.23;;
13475;SDS011;6810;63.824;20.288;2022-09-09T20:47:51;2.33;;;1.73;;
13475;SDS011;6810;63.824;20.288;2022-09-09T20:50:38;1.67;;;1.20;;
13475;SDS011;6810;63.824;20.288;2022-09-09T20:53:25;1.87;;;1.23;;
13475;SDS011;6810;63.824;20.288;2022-09-09T20:56:12;1.63;;;1.20;;
13475;SDS011;6810;63.824;20.288;2022-09-09T20:58:59;1.27;;;1.17;;
13475;SDS011;6810;63.824;20.288;2022-09-09T21:01:46;2.87;;;1.10;;
13475;SDS011;6810;63.824;20.288;2022-09-09T21:04:34;1.80;;;1.50;;
13475;SDS011;6810;63.824;20.288;2022-09-09T21:07:21;1.47;;;1.10;;
13475;SDS011;6810;63.824;20.288;2022-09-09T21:10:08;1.60;;;1.20;;
13475;SDS011;6810;63.824;20.288;2022-09-09T21:12:55;1.33;;;1.23;;
13475;SDS011;6810;63.824;20.288;2022-09-09T21:15:45;1.30;;;1.13;;
13475;SDS011;6810;63.824;20.288;2022-09-09T21:18:33;2.80;;;1.40;;
13475;SDS011;6810;63.824;20.288;2022-09-09T21:21:20;1.43;;;1.33;;
13475;SDS011;6810;63.824;20.288;2022-09-09T21:24:08;2.50;;;1.50;;
13475;SDS011;6810;63.824;20.288;2022-09-09T21:26:55;1.60;;;1.30;;
13475;SDS011;6810;63.824;20.288;2022-09-09T21:29:42;1.67;;;1.57;;
13475;SDS011;6810;63.824;20.288;2022-09-09T21:32:29;1.40;;;1.30;;
13475;SDS011;6810;63.824;20.288;2022-09-09T21:35:15;1.00;;;1.00;;
13475;SDS011;6810;63.824;20.288;2022-09-09T21:38:02;1.27;;;1.10;;
13475;SDS011;6810;63.824;20.288;2022-09-09T21:40:49;1.70;;;1.10;;
13475;SDS011;6810;63.824;20.288;2022-09-09T21:43:36;2.10;;;1.33;;
13475;SDS011;6810;63.824;20.288;2022-09-09T21:46:23;1.07;;;1.00;;
13475;SDS011;6810;63.824;20.288;2022-09-09T21:49:10;1.23;;;1.10;;
13475;SDS011;6810;63.824;20.288;2022-09-09T21:51:58;1.10;;;1.00;;
13475;SDS011;6810;63.824;20.288;2022-09-09T21:54:45;1.43;;;1.33;;
13475;SDS011;6810;63.824;20.288;2022-09-09T21:57:32;1.53;;;1.20;;
13475;SDS011;6810;63.824;20.288;2022-09-09T22:00:19;1.40;;;1.30;;
13475;SDS011;6810;63.824;20.288;2022-09-09T22:03:06;1.70;;;1.27;;
13475;SDS011;6810;63.824;20.288;2022-09-09T22:05:53;1.40;;;1.10;;
13475;SDS011;6810;63.824;20.288;2022-09-09T22:08:40;1.50;;;1.40;;
13475;SDS011;6810;63.824;20.288;2022-09-09T22:11:28;2.10;;;1.50;;
13475;SDS011;6810;63.824;20.288;2022-09-09T22:14:15;1.30;;;1.20;;
13475;SDS011;6810;63.824;20.288;2022-09-09T22:17:02;1.40;;;1.23;;
13475;SDS011;6810;63.824;20.288;2022-09-09T22:19:50;1.93;;;1.20;;
13475;SDS011;6810;63.824;20.288;2022-09-09T22:22:37;1.30;;;1.20;;
13475;SDS011;6810;63.824;20.288;2022-09-09T22:25:25;1.40;;;1.30;;
13475;SDS011;6810;63.824;20.288;2022-09-09T22:28:13;2.87;;;1.30;;
13475;SDS011;6810;63.824;20.288;2022-09-09T22:31:00;1.37;;;1.27;;
13475;SDS011;6810;63.824;20.288;2022-09-09T22:33:47;1.67;;;1.40;;
13475;SDS011;6810;63.824;20.288;2022-09-09T22:36:34;1.50;;;1.30;;
13475;SDS011;6810;63.824;20.288;2022-09-09T22:39:21;1.50;;;1.40;;
13475;SDS011;6810;63.824;20.288;2022-09-09T22:42:08;1.50;;;1.40;;
13475;SDS011;6810;63.824;20.288;2022-09-09T22:44:55;1.37;;;1.27;;
13475;SDS011;6810;63.824;20.288;2022-09-09T22:47:42;2.17;;;1.40;;
13475;SDS011;6810;63.824;20.288;2022-09-09T22:50:35;2.20;;;1.27;;
13475;SDS011;6810;63.824;20.288;2022-09-09T22:53:23;1.87;;;1.23;;
13475;SDS011;6810;63.824;20.288;2022-09-09T22:56:14;1.83;;;1.30;;
13475;SDS011;6810;63.824;20.288;2022-09-09T22:59:05;1.47;;;1.37;;
13475;SDS011;6810;63.824;20.288;2022-09-09T23:01:52;2.30;;;1.50;;
13475;SDS011;6810;63.824;20.288;2022-09-09T23:04:40;1.50;;;1.40;;
13475;SDS011;6810;63.824;20.288;2022-09-09T23:07:27;1.30;;;1.20;;